Time;durP1;ratioP1;P1;durP2;ratioP2;P2;SDS_P1;SDS_P2;PMS_P1;PMS_P2;Temp;Humidity;BMP_temperature;BMP_pressure;BME280_temperature;BME280_humidity;BME280_pressure;Samples;Min_cycle;Max_cycle;Signal;HPM_P1;HPM_P2
2022/10/06 00:01:08;;;;;;;;;2.50;2.50;;;;;;;;5078794;28;45481;-77
2022/10/06 00:03:33;;;;;;;;;1.50;1.50;;;;;;;;5078694;28;45216;-78
2022/10/06 00:05:59;;;;;;;;;1.00;1.00;;;;;;;;5077247;28;45169;-78
2022/10/06 00:08:25;;;;;;;;;2.00;2.00;;;;;;;;5078112;28;45412;-79
2022/10/06 00:10:53;;;;;;;;;1.00;1.00;;;;;;;;5059212;28;45426;-78
2022/10/06 00:13:19;;;;;;;;;1.00;1.00;;;;;;;;5077015;27;45393;-79
2022/10/06 00:15:44;;;;;;;;;3.50;1.75;;;;;;;;5078977;28;45370;-78
2022/10/06 00:18:09;;;;;;;;;3.00;3.00;;;;;;;;5077537;28;45417;-77
2022/10/06 00:20:34;;;;;;;;;0.50;0.50;;;;;;;;5077186;28;46368;-78
2022/10/06 00:23:00;;;;;;;;;2.00;2.00;;;;;;;;5078858;28;45291;-78
2022/10/06 00:25:27;;;;;;;;;1.75;1.75;;;;;;;;5079266;28;45359;-78
2022/10/06 00:27:52;;;;;;;;;1.50;1.50;;;;;;;;5080832;28;45442;-79
2022/10/06 00:30:19;;;;;;;;;1.50;1.50;;;;;;;;5087393;28;46186;-77
2022/10/06 00:32:54;;;;;;;;;0.50;0.50;;;;;;;;5088930;28;45355;-77
2022/10/06 00:35:20;;;;;;;;;1.50;1.50;;;;;;;;5071132;28;45307;-79
2022/10/06 00:37:45;;;;;;;;;1.25;1.25;;;;;;;;5085847;28;45437;-78
2022/10/06 00:40:11;;;;;;;;;2.25;2.25;;;;;;;;5078419;28;45329;-78
2022/10/06 00:42:54;;;;;;;;;2.25;1.75;;;;;;;;5077681;28;45281;-79
2022/10/06 00:45:22;;;;;;;;;2.00;1.25;;;;;;;;5077889;27;45298;-78
2022/10/06 00:47:47;;;;;;;;;2.00;2.00;;;;;;;;5079285;28;45424;-78
2022/10/06 00:50:13;;;;;;;;;1.75;1.75;;;;;;;;5079305;28;46430;-78
2022/10/06 00:52:39;;;;;;;;;1.25;1.25;;;;;;;;5080127;28;45343;-78
2022/10/06 00:55:08;;;;;;;;;1.00;1.00;;;;;;;;5081704;28;45463;-77
2022/10/06 00:57:34;;;;;;;;;1.00;1.00;;;;;;;;5082679;27;45291;-78
2022/10/06 00:59:59;;;;;;;;;2.00;2.00;;;;;;;;5080307;28;45358;-79
2022/10/06 01:02:35;;;;;;;;;1.00;0.50;;;;;;;;5081115;28;45249;-79
2022/10/06 01:05:02;;;;;;;;;0.25;0.25;;;;;;;;5082437;28;45259;-78
2022/10/06 01:07:28;;;;;;;;;0.00;0.00;;;;;;;;5080064;28;45577;-79
2022/10/06 01:09:54;;;;;;;;;0.00;0.00;;;;;;;;5080055;28;46028;-78
2022/10/06 01:12:20;;;;;;;;;1.00;1.00;;;;;;;;5080411;28;45363;-75
2022/10/06 01:14:45;;;;;;;;;2.00;2.00;;;;;;;;5082007;28;45411;-78
2022/10/06 01:17:15;;;;;;;;;2.00;2.00;;;;;;;;5085384;27;45140;-78
2022/10/06 01:19:55;;;;;;;;;2.00;1.50;;;;;;;;5085793;28;46675;-77
2022/10/06 01:22:26;;;;;;;;;2.50;2.50;;;;;;;;5088511;28;44739;-77
2022/10/06 01:24:52;;;;;;;;;2.00;2.00;;;;;;;;5085643;28;45519;-79
2022/10/06 01:27:17;;;;;;;;;1.25;0.50;;;;;;;;5082663;28;45298;-77
2022/10/06 01:29:42;;;;;;;;;2.00;2.00;;;;;;;;5082249;27;45577;-76
2022/10/06 01:32:08;;;;;;;;;3.00;2.00;;;;;;;;5080339;28;45507;-77
2022/10/06 01:34:34;;;;;;;;;2.00;2.00;;;;;;;;5081878;28;45381;-76
2022/10/06 01:37:00;;;;;;;;;3.00;1.50;;;;;;;;5080952;28;45436;-78
2022/10/06 01:39:25;;;;;;;;;2.00;2.00;;;;;;;;5079266;28;45417;-77
2022/10/06 01:41:50;;;;;;;;;0.25;0.25;;;;;;;;5079949;28;45350;-78
2022/10/06 01:44:16;;;;;;;;;1.25;1.25;;;;;;;;5061541;28;45231;-78
2022/10/06 01:46:41;;;;;;;;;1.50;1.50;;;;;;;;5080186;28;45585;-79
2022/10/06 01:49:06;;;;;;;;;3.25;3.25;;;;;;;;5080600;28;45298;-78
2022/10/06 01:51:31;;;;;;;;;1.50;1.50;;;;;;;;5082674;28;45296;-78
2022/10/06 01:53:57;;;;;;;;;2.25;1.50;;;;;;;;5063891;28;45363;-80
2022/10/06 01:56:22;;;;;;;;;2.00;2.00;;;;;;;;5080048;28;45572;-78
2022/10/06 01:58:47;;;;;;;;;3.00;3.00;;;;;;;;5080004;28;46223;-77
2022/10/06 02:01:13;;;;;;;;;3.50;2.00;;;;;;;;5078693;28;45217;-79
2022/10/06 02:03:38;;;;;;;;;2.00;2.00;;;;;;;;5078813;28;45202;-78
2022/10/06 02:06:04;;;;;;;;;1.25;1.25;;;;;;;;5078724;28;45237;-79
2022/10/06 02:08:29;;;;;;;;;2.75;2.75;;;;;;;;5078238;28;45335;-78
2022/10/06 02:10:55;;;;;;;;;2.75;2.50;;;;;;;;5078959;28;45303;-79
2022/10/06 02:13:23;;;;;;;;;1.50;1.25;;;;;;;;5079231;28;45441;-78
2022/10/06 02:15:48;;;;;;;;;1.50;1.00;;;;;;;;5079413;28;45309;-77
2022/10/06 02:18:16;;;;;;;;;2.25;1.25;;;;;;;;5078037;28;45495;-79
2022/10/06 02:20:41;;;;;;;;;1.00;1.00;;;;;;;;5078847;28;45227;-79
2022/10/06 02:23:07;;;;;;;;;2.25;2.25;;;;;;;;5078381;28;45226;-77
2022/10/06 02:25:32;;;;;;;;;1.75;1.75;;;;;;;;5078484;28;45688;-78
2022/10/06 02:27:57;;;;;;;;;1.50;1.50;;;;;;;;5077983;28;45609;-78
2022/10/06 02:30:23;;;;;;;;;1.00;1.00;;;;;;;;5078566;28;45216;-79
2022/10/06 02:32:48;;;;;;;;;2.75;1.25;;;;;;;;5078732;28;45204;-77
2022/10/06 02:35:13;;;;;;;;;2.75;2.75;;;;;;;;5078619;28;45330;-78
2022/10/06 02:37:40;;;;;;;;;4.00;3.00;;;;;;;;5078152;28;45346;-79
2022/10/06 02:40:05;;;;;;;;;1.00;1.00;;;;;;;;5078056;28;45475;-79
2022/10/06 02:42:33;;;;;;;;;2.25;2.00;;;;;;;;5059146;28;45375;-79
2022/10/06 02:44:58;;;;;;;;;4.00;3.00;;;;;;;;5078257;28;45466;-79
2022/10/06 02:47:24;;;;;;;;;1.25;1.25;;;;;;;;5077777;28;45677;-79
2022/10/06 02:49:49;;;;;;;;;2.75;2.75;;;;;;;;5078458;28;45370;-79
2022/10/06 02:52:15;;;;;;;;;1.50;1.50;;;;;;;;5060883;28;45364;-78
2022/10/06 02:54:40;;;;;;;;;3.25;2.00;;;;;;;;5078369;28;45335;-78
2022/10/06 02:57:05;;;;;;;;;3.50;2.00;;;;;;;;5077533;28;46522;-76
2022/10/06 02:59:30;;;;;;;;;2.00;2.00;;;;;;;;5078007;28;45334;-77
2022/10/06 03:01:56;;;;;;;;;3.00;2.00;;;;;;;;5060212;28;45346;-76
2022/10/06 03:04:21;;;;;;;;;1.25;1.25;;;;;;;;5086497;28;45176;-77
2022/10/06 03:06:47;;;;;;;;;3.00;2.50;;;;;;;;5081977;28;46450;-78
2022/10/06 03:09:13;;;;;;;;;1.00;0.50;;;;;;;;5078178;28;45335;-77
2022/10/06 03:11:39;;;;;;;;;2.00;2.00;;;;;;;;5077645;28;45182;-77
2022/10/06 03:14:05;;;;;;;;;2.00;2.00;;;;;;;;5059799;27;45315;-78
2022/10/06 03:16:34;;;;;;;;;2.00;1.50;;;;;;;;5077291;28;45306;-78
2022/10/06 03:18:59;;;;;;;;;2.25;2.00;;;;;;;;5077043;28;45426;-78
2022/10/06 03:21:26;;;;;;;;;2.50;2.50;;;;;;;;5077110;28;45425;-77
2022/10/06 03:23:52;;;;;;;;;4.00;4.00;;;;;;;;5077698;28;45335;-78
2022/10/06 03:26:19;;;;;;;;;1.00;0.25;;;;;;;;5077262;28;46166;-78
2022/10/06 03:28:44;;;;;;;;;2.50;2.50;;;;;;;;5059288;28;45944;-79
2022/10/06 03:31:10;;;;;;;;;3.75;3.50;;;;;;;;5077667;28;45248;-78
2022/10/06 03:33:35;;;;;;;;;1.00;1.00;;;;;;;;5077767;28;45558;-78
2022/10/06 03:36:02;;;;;;;;;1.50;1.50;;;;;;;;5076810;28;46413;-78
2022/10/06 03:38:31;;;;;;;;;2.25;2.00;;;;;;;;5059233;28;45349;-77
2022/10/06 03:41:06;;;;;;;;;3.25;3.25;;;;;;;;5076990;28;45213;-78
2022/10/06 03:43:32;;;;;;;;;2.50;2.50;;;;;;;;5077202;28;45620;-80
2022/10/06 03:45:59;;;;;;;;;2.50;2.00;;;;;;;;5077485;27;45287;-78
2022/10/06 03:48:25;;;;;;;;;4.25;4.25;;;;;;;;5077337;28;45428;-79
2022/10/06 03:50:57;;;;;;;;;4.00;4.00;;;;;;;;5076900;28;45316;-78
2022/10/06 03:53:26;;;;;;;;;2.50;1.50;;;;;;;;5076884;28;45635;-78
2022/10/06 03:56:02;;;;;;;;;1.00;1.00;;;;;;;;5057881;28;48529;-79
2022/10/06 03:58:28;;;;;;;;;3.00;1.75;;;;;;;;5077817;27;46019;-78
2022/10/06 04:00:59;;;;;;;;;0.75;0.75;;;;;;;;5077298;28;45298;-78
2022/10/06 04:03:24;;;;;;;;;2.00;2.00;;;;;;;;5059592;28;45455;-79
2022/10/06 04:05:53;;;;;;;;;2.00;2.00;;;;;;;;5076551;28;46237;-78
2022/10/06 04:08:19;;;;;;;;;2.00;2.00;;;;;;;;5081882;28;45341;-79
2022/10/06 04:10:44;;;;;;;;;3.00;2.00;;;;;;;;5087309;28;45318;-78
2022/10/06 04:13:09;;;;;;;;;1.50;1.50;;;;;;;;5083197;28;45563;-76
2022/10/06 04:15:34;;;;;;;;;2.00;2.00;;;;;;;;5084206;28;45613;-78
2022/10/06 04:17:59;;;;;;;;;2.00;2.00;;;;;;;;5083198;28;45458;-77
2022/10/06 04:20:25;;;;;;;;;2.25;2.25;;;;;;;;5084717;28;45386;-77
2022/10/06 04:22:50;;;;;;;;;2.00;2.00;;;;;;;;5089832;28;45361;-79
2022/10/06 04:25:16;;;;;;;;;1.25;1.25;;;;;;;;5084095;27;46531;-78
2022/10/06 04:27:41;;;;;;;;;1.25;1.25;;;;;;;;5083763;28;45212;-77
2022/10/06 04:30:07;;;;;;;;;3.00;3.00;;;;;;;;5078372;28;45300;-80
2022/10/06 04:32:32;;;;;;;;;3.25;3.25;;;;;;;;5077898;28;45680;-77
2022/10/06 04:35:00;;;;;;;;;1.25;1.25;;;;;;;;5077220;28;45584;-78
2022/10/06 04:37:27;;;;;;;;;3.00;1.75;;;;;;;;5063605;28;45319;-79
2022/10/06 04:39:52;;;;;;;;;3.00;3.00;;;;;;;;5081745;28;45393;-78
2022/10/06 04:42:17;;;;;;;;;4.00;4.00;;;;;;;;5062156;28;45383;-78
2022/10/06 04:44:43;;;;;;;;;1.50;1.50;;;;;;;;5079456;28;46533;-80
2022/10/06 04:47:08;;;;;;;;;2.00;2.00;;;;;;;;5080963;28;45356;-79
2022/10/06 04:49:33;;;;;;;;;4.00;4.00;;;;;;;;5084349;28;45396;-79
2022/10/06 04:51:58;;;;;;;;;4.25;4.25;;;;;;;;5083369;28;45394;-79
2022/10/06 04:54:24;;;;;;;;;3.00;3.00;;;;;;;;5081615;28;46487;-78
2022/10/06 04:56:49;;;;;;;;;5.25;5.25;;;;;;;;5081592;28;45259;-79
2022/10/06 04:59:14;;;;;;;;;3.00;3.00;;;;;;;;5080192;28;45388;-77
2022/10/06 05:01:39;;;;;;;;;3.25;3.25;;;;;;;;5080693;28;45443;-78
2022/10/06 05:04:05;;;;;;;;;3.25;3.25;;;;;;;;5079714;28;46367;-79
2022/10/06 05:06:34;;;;;;;;;2.00;2.00;;;;;;;;5079674;28;45354;-79
2022/10/06 05:09:01;;;;;;;;;3.00;3.00;;;;;;;;5062185;28;45335;-79
2022/10/06 05:11:26;;;;;;;;;4.00;4.00;;;;;;;;5080556;28;45422;-78
2022/10/06 05:13:53;;;;;;;;;15.25;13.50;;;;;;;;5078909;28;46504;-78
2022/10/06 05:16:19;;;;;;;;;4.50;4.00;;;;;;;;5080006;28;45311;-80
2022/10/06 05:18:44;;;;;;;;;3.75;3.75;;;;;;;;5082013;28;45477;-78
2022/10/06 05:21:11;;;;;;;;;5.50;2.75;;;;;;;;5082248;28;45778;-78
2022/10/06 05:23:38;;;;;;;;;6.00;5.00;;;;;;;;5079100;28;45542;-78
2022/10/06 05:26:04;;;;;;;;;5.50;5.25;;;;;;;;5060763;28;45897;-78
2022/10/06 05:28:30;;;;;;;;;6.00;6.00;;;;;;;;5080102;28;45676;-78
2022/10/06 05:31:11;;;;;;;;;6.75;6.75;;;;;;;;5080031;28;45376;-80
2022/10/06 05:33:36;;;;;;;;;5.25;5.25;;;;;;;;5061602;28;47196;-78
2022/10/06 05:36:03;;;;;;;;;5.00;5.00;;;;;;;;5066292;28;45228;-78
2022/10/06 05:38:28;;;;;;;;;4.25;3.75;;;;;;;;5091277;28;45233;-78
2022/10/06 05:41:04;;;;;;;;;5.00;5.00;;;;;;;;5080661;28;45292;-78
2022/10/06 05:43:29;;;;;;;;;9.50;5.25;;;;;;;;5060836;28;46807;-80
2022/10/06 05:45:56;;;;;;;;;3.75;3.75;;;;;;;;5079025;28;45335;-79
2022/10/06 05:48:21;;;;;;;;;4.00;4.00;;;;;;;;5080380;28;45426;-79
2022/10/06 05:50:46;;;;;;;;;4.25;4.25;;;;;;;;5081078;28;45322;-79
2022/10/06 05:53:11;;;;;;;;;3.75;3.75;;;;;;;;5080851;28;46085;-79
2022/10/06 05:55:37;;;;;;;;;4.25;4.25;;;;;;;;5063610;28;45649;-80
2022/10/06 05:58:02;;;;;;;;;4.00;4.00;;;;;;;;5085981;28;45361;-79
2022/10/06 06:00:27;;;;;;;;;4.75;4.75;;;;;;;;5085024;28;45608;-80
2022/10/06 06:02:53;;;;;;;;;4.50;4.25;;;;;;;;5080936;28;45329;-79
2022/10/06 06:05:18;;;;;;;;;4.50;4.00;;;;;;;;5063097;28;45371;-80
2022/10/06 06:07:43;;;;;;;;;6.25;6.25;;;;;;;;5082429;28;45298;-79
2022/10/06 06:10:08;;;;;;;;;3.00;3.00;;;;;;;;5079941;28;45316;-79
2022/10/06 06:12:34;;;;;;;;;8.50;7.25;;;;;;;;5079164;28;45473;-79
2022/10/06 06:17:43;;;;;;;;;6.00;6.00;;;;;;;;5080634;28;45347;-79
2022/10/06 06:20:08;;;;;;;;;8.50;7.25;;;;;;;;5080570;28;45392;-79
2022/10/06 06:22:34;;;;;;;;;3.00;2.25;;;;;;;;5081169;28;46544;-79
2022/10/06 06:24:59;;;;;;;;;4.00;4.00;;;;;;;;5080178;28;45461;-80
2022/10/06 06:27:25;;;;;;;;;9.00;6.00;;;;;;;;5079061;28;45489;-79
2022/10/06 06:29:50;;;;;;;;;11.25;10.00;;;;;;;;5061249;28;45244;-79
2022/10/06 06:32:15;;;;;;;;;7.50;7.00;;;;;;;;5061021;28;48013;-80
2022/10/06 06:34:41;;;;;;;;;4.50;4.50;;;;;;;;5061612;28;45547;-79
2022/10/06 06:37:07;;;;;;;;;5.25;5.25;;;;;;;;5079599;28;45287;-79
2022/10/06 06:39:33;;;;;;;;;6.00;6.00;;;;;;;;5079033;27;45327;-78
2022/10/06 06:42:00;;;;;;;;;6.75;6.25;;;;;;;;5078991;28;45351;-79
2022/10/06 06:44:26;;;;;;;;;12.75;12.75;;;;;;;;5078839;28;45483;-78
2022/10/06 06:46:51;;;;;;;;;4.50;4.50;;;;;;;;5078430;28;45333;-80
2022/10/06 06:49:18;;;;;;;;;8.00;6.25;;;;;;;;5080110;27;45629;-78
2022/10/06 06:51:48;;;;;;;;;5.00;4.00;;;;;;;;5063383;28;47979;-80
2022/10/06 06:54:13;;;;;;;;;7.75;7.25;;;;;;;;5079589;28;45342;-79
2022/10/06 06:56:39;;;;;;;;;6.25;4.25;;;;;;;;5078883;27;45228;-80
2022/10/06 06:59:10;;;;;;;;;4.25;4.25;;;;;;;;5077892;28;45292;-79
2022/10/06 07:01:43;;;;;;;;;3.75;3.75;;;;;;;;5079743;28;46384;-78
2022/10/06 07:04:08;;;;;;;;;5.25;5.25;;;;;;;;5061529;28;46033;-79
2022/10/06 07:06:35;;;;;;;;;7.00;7.00;;;;;;;;5059872;28;45454;-79
2022/10/06 07:09:01;;;;;;;;;8.50;7.50;;;;;;;;5079142;28;45299;-79
2022/10/06 07:11:28;;;;;;;;;7.00;7.00;;;;;;;;5060570;27;47741;-78
2022/10/06 07:13:55;;;;;;;;;6.00;5.50;;;;;;;;5059867;28;45367;-78
2022/10/06 07:27:30;;;;;;;;;6.50;6.50;;;;;;;;5121362;27;45415;-78
2022/10/06 07:29:56;;;;;;;;;4.75;4.75;;;;;;;;5118330;27;45431;-77
2022/10/06 07:32:22;;;;;;;;;5.25;5.25;;;;;;;;5115602;27;47161;-78
2022/10/06 07:34:48;;;;;;;;;6.00;6.00;;;;;;;;5115760;27;45184;-76
2022/10/06 07:37:13;;;;;;;;;6.00;6.00;;;;;;;;5114863;27;45295;-77
2022/10/06 07:39:38;;;;;;;;;5.75;5.75;;;;;;;;5115380;27;45301;-77
2022/10/06 07:42:07;;;;;;;;;7.00;6.75;;;;;;;;5117920;27;46357;-78
2022/10/06 07:44:32;;;;;;;;;5.25;5.25;;;;;;;;5116305;27;45851;-81
2022/10/06 07:46:57;;;;;;;;;8.00;7.25;;;;;;;;5121596;27;45327;-78
2022/10/06 07:49:23;;;;;;;;;4.75;4.25;;;;;;;;5119496;27;45585;-76
2022/10/06 07:51:48;;;;;;;;;5.25;5.25;;;;;;;;5115247;27;45319;-78
2022/10/06 07:54:13;;;;;;;;;7.25;7.25;;;;;;;;5114486;27;45398;-78
2022/10/06 07:56:38;;;;;;;;;6.75;6.75;;;;;;;;5116527;27;45402;-78
2022/10/06 07:59:04;;;;;;;;;6.75;5.00;;;;;;;;5117042;27;45496;-77
2022/10/06 08:01:29;;;;;;;;;7.25;7.25;;;;;;;;5117340;27;47645;-77
2022/10/06 08:03:55;;;;;;;;;6.00;5.50;;;;;;;;5114293;27;45265;-75
2022/10/06 08:06:22;;;;;;;;;4.00;4.00;;;;;;;;5115031;27;45258;-75
2022/10/06 08:08:48;;;;;;;;;6.00;5.75;;;;;;;;5128938;27;45608;-79
2022/10/06 08:11:14;;;;;;;;;6.50;5.50;;;;;;;;5116956;27;46096;-79
2022/10/06 08:13:41;;;;;;;;;5.00;5.00;;;;;;;;5113010;27;45189;-78
2022/10/06 08:16:07;;;;;;;;;1.00;1.00;;;;;;;;5113541;27;45232;-77
2022/10/06 08:18:32;;;;;;;;;5.25;5.25;;;;;;;;5113191;27;45489;-77
2022/10/06 08:20:57;;;;;;;;;4.00;4.00;;;;;;;;5112824;27;45431;-79
2022/10/06 08:23:23;;;;;;;;;4.00;4.00;;;;;;;;5112374;27;45636;-78
2022/10/06 08:25:49;;;;;;;;;2.75;2.75;;;;;;;;5113721;27;45368;-78
2022/10/06 08:28:15;;;;;;;;;2.25;2.25;;;;;;;;5114591;27;45414;-77
2022/10/06 08:30:40;;;;;;;;;5.00;3.25;;;;;;;;5114792;27;45536;-77
2022/10/06 08:33:05;;;;;;;;;3.75;3.00;;;;;;;;5101116;27;45372;-78
2022/10/06 08:35:31;;;;;;;;;4.75;4.75;;;;;;;;5100633;27;45400;-77
2022/10/06 08:37:56;;;;;;;;;6.50;6.50;;;;;;;;5099334;27;45496;-77
2022/10/06 08:40:22;;;;;;;;;2.00;2.00;;;;;;;;5099748;27;46078;-76
2022/10/06 08:42:49;;;;;;;;;4.25;4.25;;;;;;;;5101759;27;45283;-76
2022/10/06 08:45:19;;;;;;;;;2.00;2.00;;;;;;;;5100221;27;45534;-77
2022/10/06 08:47:54;;;;;;;;;5.75;5.75;;;;;;;;5100762;27;45344;-78
2022/10/06 08:50:21;;;;;;;;;3.75;3.75;;;;;;;;5098574;27;45495;-77
2022/10/06 08:52:55;;;;;;;;;3.75;3.75;;;;;;;;5099889;27;45431;-76
2022/10/06 08:55:26;;;;;;;;;3.50;2.50;;;;;;;;5101165;27;45408;-77
2022/10/06 08:57:57;;;;;;;;;7.00;5.75;;;;;;;;5097632;27;45314;-75
2022/10/06 09:00:22;;;;;;;;;5.00;4.00;;;;;;;;5099129;27;46525;-77
2022/10/06 09:02:48;;;;;;;;;3.75;3.75;;;;;;;;5099863;27;45531;-77
2022/10/06 09:05:18;;;;;;;;;4.25;4.00;;;;;;;;5100200;27;45243;-77
2022/10/06 09:07:52;;;;;;;;;3.75;3.75;;;;;;;;5099993;27;45525;-76
2022/10/06 09:10:26;;;;;;;;;3.75;3.75;;;;;;;;5100293;27;45400;-79
2022/10/06 09:12:52;;;;;;;;;0.25;0.25;;;;;;;;5100618;27;45345;-78
2022/10/06 09:15:36;;;;;;;;;4.00;3.50;;;;;;;;5099339;27;45302;-77
2022/10/06 09:18:09;;;;;;;;;3.75;3.75;;;;;;;;5099374;27;45544;-78
2022/10/06 09:20:38;;;;;;;;;4.75;4.75;;;;;;;;5101732;27;47211;-77
2022/10/06 09:23:05;;;;;;;;;2.50;2.50;;;;;;;;5099722;27;46042;-78
2022/10/06 09:25:31;;;;;;;;;5.00;5.00;;;;;;;;5098726;27;45489;-78
2022/10/06 09:27:58;;;;;;;;;6.75;5.00;;;;;;;;5101872;27;45210;-78
2022/10/06 09:30:24;;;;;;;;;10.25;10.25;;;;;;;;5098817;27;46127;-78
2022/10/06 09:32:58;;;;;;;;;5.50;5.50;;;;;;;;5098325;27;45271;-78
2022/10/06 09:35:24;;;;;;;;;5.00;5.00;;;;;;;;5098309;27;45343;-76
2022/10/06 09:37:55;;;;;;;;;11.25;11.25;;;;;;;;5098260;27;45484;-78
2022/10/06 09:40:40;;;;;;;;;3.75;3.25;;;;;;;;5098332;27;46223;-77
2022/10/06 09:43:26;;;;;;;;;4.25;4.25;;;;;;;;5097230;27;45371;-79
2022/10/06 09:45:53;;;;;;;;;7.25;7.25;;;;;;;;5101585;27;45236;-76
2022/10/06 09:48:21;;;;;;;;;3.75;3.75;;;;;;;;5104077;27;45532;-76
2022/10/06 09:51:05;;;;;;;;;10.50;8.75;;;;;;;;5102680;27;46499;-78
2022/10/06 09:53:30;;;;;;;;;9.00;9.00;;;;;;;;5102468;27;45375;-78
2022/10/06 09:55:56;;;;;;;;;6.50;6.50;;;;;;;;5098266;27;45266;-78
2022/10/06 09:58:21;;;;;;;;;7.00;7.00;;;;;;;;5099083;27;45440;-77
2022/10/06 10:00:51;;;;;;;;;15.50;15.50;;;;;;;;5102778;27;46332;-79
2022/10/06 10:03:16;;;;;;;;;6.25;5.50;;;;;;;;5102942;27;45224;-76
2022/10/06 10:05:46;;;;;;;;;10.50;7.50;;;;;;;;5101099;27;45423;-76
2022/10/06 10:08:12;;;;;;;;;4.25;4.25;;;;;;;;5102432;27;45397;-77
2022/10/06 10:10:37;;;;;;;;;3.75;3.75;;;;;;;;5102130;27;46063;-79
2022/10/06 10:13:15;;;;;;;;;4.00;4.00;;;;;;;;5101525;27;45380;-77
2022/10/06 10:15:51;;;;;;;;;3.75;3.75;;;;;;;;5103450;27;45285;-77
2022/10/06 10:18:25;;;;;;;;;8.75;7.75;;;;;;;;5103345;27;45316;-76
2022/10/06 10:20:58;;;;;;;;;2.00;2.00;;;;;;;;5102296;27;46415;-78
2022/10/06 10:23:32;;;;;;;;;6.25;6.25;;;;;;;;5098443;27;45373;-78
2022/10/06 10:25:57;;;;;;;;;4.75;4.50;;;;;;;;5099827;27;45350;-78
2022/10/06 10:28:26;;;;;;;;;3.50;3.00;;;;;;;;5101391;27;45615;-78
2022/10/06 10:30:59;;;;;;;;;4.00;4.00;;;;;;;;5100927;27;45424;-79
2022/10/06 10:33:24;;;;;;;;;2.25;2.25;;;;;;;;5099501;27;45384;-79
2022/10/06 10:35:51;;;;;;;;;1.50;1.50;;;;;;;;5102487;27;45441;-78
2022/10/06 10:38:17;;;;;;;;;2.50;2.00;;;;;;;;5102691;27;45190;-78
2022/10/06 10:41:01;;;;;;;;;3.25;3.25;;;;;;;;5104257;27;45431;-78
2022/10/06 10:43:30;;;;;;;;;2.25;2.25;;;;;;;;5096879;27;45238;-78
2022/10/06 10:45:55;;;;;;;;;5.00;5.00;;;;;;;;5098637;27;45255;-79
2022/10/06 10:48:29;;;;;;;;;4.00;3.00;;;;;;;;5099667;27;45164;-79
2022/10/06 10:51:00;;;;;;;;;4.25;4.25;;;;;;;;5097811;27;45730;-79
2022/10/06 10:53:36;;;;;;;;;4.50;4.50;;;;;;;;5100406;27;44876;-78
2022/10/06 10:56:02;;;;;;;;;3.25;3.25;;;;;;;;5096172;27;45360;-78
2022/10/06 10:58:32;;;;;;;;;4.75;4.75;;;;;;;;5098309;27;45294;-77
2022/10/06 11:01:16;;;;;;;;;4.00;3.00;;;;;;;;5097787;27;45666;-78
2022/10/06 11:03:42;;;;;;;;;6.00;6.00;;;;;;;;5102732;27;44835;-78
2022/10/06 11:06:23;;;;;;;;;5.00;5.00;;;;;;;;5104390;27;45323;-78
2022/10/06 11:09:02;;;;;;;;;3.00;3.00;;;;;;;;5099929;27;45592;-77
2022/10/06 11:11:30;;;;;;;;;4.00;3.00;;;;;;;;5102206;27;45421;-77
2022/10/06 11:13:58;;;;;;;;;7.00;5.00;;;;;;;;5098530;27;45402;-76
2022/10/06 11:16:27;;;;;;;;;6.00;6.00;;;;;;;;5099066;27;45322;-76
2022/10/06 11:18:52;;;;;;;;;2.75;2.75;;;;;;;;5099700;27;45309;-76
2022/10/06 11:21:26;;;;;;;;;5.00;5.00;;;;;;;;5101554;27;45617;-78
2022/10/06 11:24:00;;;;;;;;;3.00;3.00;;;;;;;;5104718;27;45434;-78
2022/10/06 11:26:35;;;;;;;;;4.00;4.00;;;;;;;;5105829;27;45421;-76
2022/10/06 11:29:16;;;;;;;;;4.25;4.25;;;;;;;;5098898;27;45328;-78
2022/10/06 11:31:50;;;;;;;;;4.50;3.75;;;;;;;;5097276;27;46285;-77
2022/10/06 11:34:16;;;;;;;;;2.00;2.00;;;;;;;;5101075;27;45361;-79
2022/10/06 11:36:48;;;;;;;;;6.00;4.25;;;;;;;;5103766;27;45447;-78
2022/10/06 11:39:19;;;;;;;;;5.50;5.25;;;;;;;;5081333;27;45410;-76
2022/10/06 11:41:58;;;;;;;;;9.25;7.50;;;;;;;;5096753;27;47999;-78
2022/10/06 11:44:47;;;;;;;;;12.75;12.75;;;;;;;;5099310;27;45461;-76
2022/10/06 11:47:24;;;;;;;;;9.50;9.50;;;;;;;;5095048;27;45299;-76
2022/10/06 11:49:53;;;;;;;;;7.25;7.25;;;;;;;;5099272;27;45246;-79
2022/10/06 11:52:18;;;;;;;;;8.00;7.50;;;;;;;;5096882;27;45471;-76
2022/10/06 11:54:47;;;;;;;;;17.25;17.25;;;;;;;;5097497;27;45456;-77
2022/10/06 11:57:21;;;;;;;;;6.00;6.00;;;;;;;;5098346;27;45243;-78
2022/10/06 11:59:51;;;;;;;;;5.50;5.50;;;;;;;;5097555;27;45516;-75
2022/10/06 12:02:31;;;;;;;;;6.00;6.00;;;;;;;;5097250;27;45328;-78
2022/10/06 12:05:08;;;;;;;;;5.25;4.25;;;;;;;;5098285;27;45234;-75
2022/10/06 12:07:57;;;;;;;;;4.00;4.00;;;;;;;;5099459;27;45196;-77
2022/10/06 12:10:28;;;;;;;;;2.00;2.00;;;;;;;;5097991;27;45329;-77
2022/10/06 12:12:56;;;;;;;;;5.50;5.25;;;;;;;;5101278;27;45276;-77
2022/10/06 12:15:27;;;;;;;;;4.00;4.00;;;;;;;;5105348;27;45295;-77
2022/10/06 12:17:56;;;;;;;;;5.25;5.25;;;;;;;;5101620;27;45333;-76
2022/10/06 12:20:36;;;;;;;;;6.00;6.00;;;;;;;;5101117;27;45565;-79
2022/10/06 12:23:02;;;;;;;;;7.25;6.00;;;;;;;;5100578;27;45415;-77
2022/10/06 12:25:31;;;;;;;;;4.00;4.00;;;;;;;;5101557;27;45243;-78
2022/10/06 12:28:09;;;;;;;;;4.75;4.75;;;;;;;;5102646;27;45429;-77
2022/10/06 12:30:53;;;;;;;;;4.25;4.00;;;;;;;;5103206;27;45431;-78
2022/10/06 12:33:32;;;;;;;;;7.25;7.25;;;;;;;;5101075;27;46636;-78
2022/10/06 12:36:02;;;;;;;;;5.25;5.25;;;;;;;;5101653;27;45238;-78
2022/10/06 12:38:30;;;;;;;;;7.25;7.25;;;;;;;;5101675;27;45443;-76
2022/10/06 12:40:56;;;;;;;;;23.00;21.75;;;;;;;;5100964;27;45303;-78
2022/10/06 12:43:21;;;;;;;;;6.50;6.50;;;;;;;;5102681;27;46918;-77
2022/10/06 12:46:06;;;;;;;;;3.25;2.75;;;;;;;;5102456;27;45484;-76
2022/10/06 12:48:38;;;;;;;;;4.75;4.75;;;;;;;;5103868;27;45233;-77
2022/10/06 12:51:17;;;;;;;;;7.50;7.00;;;;;;;;5103059;27;45335;-77
2022/10/06 12:53:55;;;;;;;;;4.25;3.25;;;;;;;;5099768;27;46212;-80
2022/10/06 12:56:30;;;;;;;;;2.00;2.00;;;;;;;;5099655;27;45314;-77
2022/10/06 12:58:57;;;;;;;;;3.00;3.00;;;;;;;;5100343;27;45263;-77
2022/10/06 13:01:23;;;;;;;;;5.00;5.00;;;;;;;;5097884;27;45369;-78
2022/10/06 13:03:49;;;;;;;;;7.50;7.50;;;;;;;;5100416;27;45433;-76
2022/10/06 13:06:18;;;;;;;;;2.75;2.75;;;;;;;;5109316;27;45427;-76
2022/10/06 13:08:43;;;;;;;;;6.00;6.00;;;;;;;;5106159;27;45170;-78
2022/10/06 13:11:11;;;;;;;;;3.00;3.00;;;;;;;;5100646;27;45498;-77
2022/10/06 13:13:37;;;;;;;;;10.00;10.00;;;;;;;;5101126;27;45638;-76
2022/10/06 13:16:03;;;;;;;;;4.25;4.25;;;;;;;;5100535;27;45284;-77
2022/10/06 13:18:30;;;;;;;;;2.00;2.00;;;;;;;;5104245;27;46091;-77
2022/10/06 13:20:56;;;;;;;;;8.25;8.25;;;;;;;;5100424;27;45393;-78
2022/10/06 13:23:24;;;;;;;;;10.25;9.25;;;;;;;;5097719;27;48175;-78
2022/10/06 13:26:00;;;;;;;;;3.75;3.75;;;;;;;;5099387;27;45316;-79
2022/10/06 13:28:28;;;;;;;;;6.00;5.00;;;;;;;;5100838;27;45187;-78
2022/10/06 13:30:55;;;;;;;;;2.50;2.50;;;;;;;;5106001;27;45563;-78
2022/10/06 13:33:21;;;;;;;;;3.00;3.00;;;;;;;;5103693;27;45396;-78
2022/10/06 13:35:51;;;;;;;;;2.50;2.50;;;;;;;;5101703;27;45262;-76
2022/10/06 13:38:17;;;;;;;;;2.25;2.25;;;;;;;;5098671;27;45382;-78
2022/10/06 13:40:42;;;;;;;;;5.00;5.00;;;;;;;;5099037;27;45594;-78
2022/10/06 13:43:13;;;;;;;;;2.00;2.00;;;;;;;;5099860;27;45975;-77
2022/10/06 13:45:40;;;;;;;;;1.50;1.50;;;;;;;;5096596;27;45250;-78
2022/10/06 13:48:16;;;;;;;;;3.00;2.00;;;;;;;;5098254;27;45197;-78
2022/10/06 13:50:45;;;;;;;;;1.50;0.00;;;;;;;;5097142;27;45470;-77
2022/10/06 13:53:43;;;;;;;;;4.25;4.25;;;;;;;;5097947;27;46236;-77
2022/10/06 13:56:22;;;;;;;;;1.00;1.00;;;;;;;;5073711;27;46298;-78
2022/10/06 13:58:48;;;;;;;;;2.50;2.50;;;;;;;;5098118;27;45332;-79
2022/10/06 14:01:13;;;;;;;;;4.50;4.50;;;;;;;;5096915;27;45340;-77
2022/10/06 14:03:38;;;;;;;;;2.25;2.25;;;;;;;;5099572;27;45426;-79
2022/10/06 14:06:10;;;;;;;;;1.00;1.00;;;;;;;;5100026;27;45309;-78
2022/10/06 14:08:35;;;;;;;;;1.00;1.00;;;;;;;;5107237;27;45183;-77
2022/10/06 14:11:03;;;;;;;;;2.00;2.00;;;;;;;;5107129;27;45604;-77
2022/10/06 14:13:51;;;;;;;;;5.25;5.25;;;;;;;;5105098;27;47607;-77
2022/10/06 14:16:21;;;;;;;;;3.25;3.25;;;;;;;;5099416;27;45350;-77
2022/10/06 14:18:57;;;;;;;;;1.25;1.00;;;;;;;;5101894;27;45429;-77
2022/10/06 14:21:35;;;;;;;;;4.00;4.00;;;;;;;;5088617;27;45372;-79
2022/10/06 14:24:27;;;;;;;;;1.50;1.50;;;;;;;;5084896;28;45366;-78
2022/10/06 14:26:56;;;;;;;;;1.00;1.00;;;;;;;;5077882;28;45352;-77
2022/10/06 14:29:21;;;;;;;;;6.25;5.50;;;;;;;;5078009;28;45383;-77
2022/10/06 14:31:47;;;;;;;;;3.75;3.75;;;;;;;;5085733;28;45416;-78
2022/10/06 14:34:15;;;;;;;;;2.50;2.50;;;;;;;;5067774;28;46506;-77
2022/10/06 14:36:41;;;;;;;;;1.00;1.00;;;;;;;;5083115;28;45300;-76
2022/10/06 14:39:07;;;;;;;;;1.50;1.50;;;;;;;;5079454;28;45431;-77
2022/10/06 14:41:32;;;;;;;;;4.00;3.00;;;;;;;;5062635;28;45418;-78
2022/10/06 14:44:04;;;;;;;;;2.50;1.50;;;;;;;;5067345;28;47418;-79
2022/10/06 14:46:30;;;;;;;;;0.00;0.00;;;;;;;;5084096;28;45197;-78
2022/10/06 14:48:56;;;;;;;;;2.00;2.00;;;;;;;;5062969;28;45347;-79
2022/10/06 14:51:24;;;;;;;;;2.00;2.00;;;;;;;;5080783;28;45248;-77
2022/10/06 14:53:52;;;;;;;;;1.00;1.00;;;;;;;;5080488;28;45545;-77
2022/10/06 14:56:17;;;;;;;;;2.00;2.00;;;;;;;;5081318;28;45285;-76
2022/10/06 14:58:42;;;;;;;;;3.75;3.25;;;;;;;;5084490;28;45256;-78
2022/10/06 15:01:08;;;;;;;;;2.50;2.50;;;;;;;;5091096;28;45260;-79
2022/10/06 15:03:34;;;;;;;;;3.00;3.00;;;;;;;;5091691;28;45571;-77